Decoded Metar for VDSV ( in ) (IATA:) | Meteo·Mobile Aviation Weather
aviador You're here:

VDSV Decoded Metar

in
Report Time2019-07-23 02:30:00
UTC Time2019-07-23 03:08:35
Flight Rules vfr VFR
WindVRB at 03 kt
Visibility9999 m
Phenomena:N/A
Clouds:Scattered 015 Hf
Scattered 040 Hf
Expected CloudBase > 1,200 ft AGL from Temp-Dew spread
CeilingNone
Temp30°C
Dew Point27°C (84% RH)
Heat Index38.8°C
QNH1009 hPa
Raw Report
METAR VDSV 230230Z VRB03KT 9999 SCT015 SCT040 30/27 Q1009=

Extra information for VDSV:More info

Social comments